ASP981 KMSO-KPUW
Flight info
| Callsign | ASP981 |
|---|---|
| Flight time | 0h 33m |
| Altitude | 20000 |
| Route | DIPHU WALED |
| Aircraft | B461/M-SDFGIRWY/LB1 |
Departure
| Time | 2026-04-27 02:45 |
|---|---|
| Airport | Missoula Montana Airport (KMSO) |
Arrival
| Time | 2026-04-27 03:18 |
|---|---|
| Airport | Pullman-Moscow Regional Airport (KPUW) |
| Time | Latitude | Longitude | Altitude | Speed | Heading |
|---|---|---|---|---|---|
| 2026-04-27 02:29 | 46.91837 | -114.08463 | 3207 ft | 0 kts | 63° |
| 2026-04-27 02:36 | 46.91836 | -114.08464 | 3207 ft | 0 kts | 63° |
| 2026-04-27 02:37 | 46.91836 | -114.08465 | 3207 ft | 0 kts | 62° |
| 2026-04-27 02:37 | 46.91831 | -114.08471 | 3207 ft | 2 kts | 30° |
| 2026-04-27 02:37 | 46.91822 | -114.08485 | 3207 ft | 2 kts | 63° |
| 2026-04-27 02:37 | 46.91816 | -114.08504 | 3207 ft | 2 kts | 79° |
| 2026-04-27 02:38 | 46.91816 | -114.08527 | 3207 ft | 2 kts | 95° |
| 2026-04-27 02:38 | 46.91822 | -114.08545 | 3207 ft | 1 kts | 129° |
| 2026-04-27 02:38 | 46.91826 | -114.08550 | 3207 ft | 0 kts | 134° |
| 2026-04-27 02:40 | 46.91820 | -114.08544 | 3207 ft | 4 kts | 151° |
| 2026-04-27 02:40 | 46.91808 | -114.08587 | 3207 ft | 12 kts | 316° |
| 2026-04-27 02:40 | 46.91882 | -114.08705 | 3206 ft | 17 kts | 311° |
| 2026-04-27 02:40 | 46.91934 | -114.08836 | 3206 ft | 13 kts | 237° |
| 2026-04-27 02:41 | 46.91864 | -114.08931 | 3205 ft | 14 kts | 222° |
| 2026-04-27 02:41 | 46.91787 | -114.09035 | 3204 ft | 15 kts | 243° |
| 2026-04-27 02:41 | 46.91831 | -114.09169 | 3204 ft | 16 kts | 310° |
| 2026-04-27 02:41 | 46.91914 | -114.09312 | 3203 ft | 19 kts | 310° |
| 2026-04-27 02:42 | 46.92004 | -114.09473 | 3202 ft | 21 kts | 310° |
| 2026-04-27 02:42 | 46.92102 | -114.09639 | 3201 ft | 22 kts | 311° |
| 2026-04-27 02:42 | 46.92206 | -114.09812 | 3199 ft | 22 kts | 311° |
| 2026-04-27 02:42 | 46.92230 | -114.09853 | 3199 ft | 23 kts | 311° |
| 2026-04-27 02:43 | 46.92270 | -114.09920 | 3198 ft | 23 kts | 311° |
| 2026-04-27 02:43 | 46.92345 | -114.10049 | 3197 ft | 23 kts | 310° |
| 2026-04-27 02:43 | 46.92452 | -114.10232 | 3198 ft | 23 kts | 310° |
| 2026-04-27 02:43 | 46.92554 | -114.10410 | 3200 ft | 22 kts | 309° |
| 2026-04-27 02:44 | 46.92568 | -114.10532 | 3201 ft | 12 kts | 224° |
| 2026-04-27 02:44 | 46.92503 | -114.10615 | 3200 ft | 13 kts | 216° |
| 2026-04-27 02:44 | 46.92415 | -114.10536 | 3198 ft | 34 kts | 129° |
| 2026-04-27 02:44 | 46.92067 | -114.09942 | 3197 ft | 114 kts | 130° |
| 2026-04-27 02:45 | 46.91468 | -114.08952 | 3502 ft | 137 kts | 128° |
| 2026-04-27 02:45 | 46.90691 | -114.07998 | 3974 ft | 161 kts | 152° |
| 2026-04-27 02:45 | 46.89516 | -114.07941 | 4442 ft | 186 kts | 186° |
| 2026-04-27 02:45 | 46.88189 | -114.08012 | 4891 ft | 201 kts | 171° |
| 2026-04-27 02:46 | 46.86754 | -114.07513 | 5330 ft | 226 kts | 166° |
| 2026-04-27 02:46 | 46.85128 | -114.07169 | 5829 ft | 247 kts | 169° |
| 2026-04-27 02:46 | 46.83370 | -114.06804 | 6258 ft | 263 kts | 169° |
| 2026-04-27 02:46 | 46.81512 | -114.06424 | 6783 ft | 273 kts | 169° |
| 2026-04-27 02:47 | 46.79621 | -114.06039 | 7425 ft | 277 kts | 170° |
| 2026-04-27 02:47 | 46.77719 | -114.05656 | 8077 ft | 280 kts | 170° |
| 2026-04-27 02:47 | 46.75770 | -114.05264 | 8730 ft | 283 kts | 170° |
| 2026-04-27 02:47 | 46.73845 | -114.04878 | 9362 ft | 285 kts | 171° |
| 2026-04-27 02:48 | 46.71880 | -114.04487 | 10007 ft | 287 kts | 171° |
| 2026-04-27 02:48 | 46.69886 | -114.04092 | 10592 ft | 290 kts | 172° |
| 2026-04-27 02:48 | 46.67884 | -114.04244 | 11144 ft | 294 kts | 193° |
| 2026-04-27 02:48 | 46.65860 | -114.04564 | 11673 ft | 296 kts | 172° |
| 2026-04-27 02:49 | 46.63950 | -114.03524 | 12016 ft | 304 kts | 144° |
| 2026-04-27 02:49 | 46.62534 | -114.01196 | 12187 ft | 317 kts | 116° |
| 2026-04-27 02:49 | 46.62025 | -113.98065 | 12469 ft | 324 kts | 88° |
| 2026-04-27 02:49 | 46.62576 | -113.94911 | 12842 ft | 327 kts | 61° |
| 2026-04-27 02:50 | 46.64061 | -113.92446 | 13225 ft | 329 kts | 34° |
| 2026-04-27 02:50 | 46.66175 | -113.91207 | 13631 ft | 330 kts | 7° |
| 2026-04-27 02:50 | 46.68421 | -113.91475 | 14033 ft | 330 kts | 340° |
| 2026-04-27 02:50 | 46.70437 | -113.93032 | 14397 ft | 331 kts | 332° |
| 2026-04-27 02:51 | 46.72590 | -113.94286 | 14742 ft | 335 kts | 335° |
| 2026-04-27 02:51 | 46.74706 | -113.95759 | 15112 ft | 336 kts | 332° |
| 2026-04-27 02:51 | 46.76769 | -113.97305 | 15501 ft | 337 kts | 330° |
| 2026-04-27 02:51 | 46.78840 | -113.98979 | 15904 ft | 339 kts | 328° |
| 2026-04-27 02:52 | 46.80855 | -114.00706 | 16266 ft | 340 kts | 328° |
| 2026-04-27 02:52 | 46.82931 | -114.02372 | 16594 ft | 343 kts | 330° |
| 2026-04-27 02:52 | 46.85066 | -114.03996 | 16913 ft | 345 kts | 330° |
| 2026-04-27 02:52 | 46.87185 | -114.05608 | 17241 ft | 347 kts | 330° |
| 2026-04-27 02:53 | 46.89142 | -114.07642 | 17561 ft | 344 kts | 311° |
| 2026-04-27 02:53 | 46.90409 | -114.10532 | 17852 ft | 341 kts | 289° |
| 2026-04-27 02:53 | 46.90863 | -114.13892 | 18152 ft | 340 kts | 274° |
| 2026-04-27 02:53 | 46.91120 | -114.17336 | 18455 ft | 342 kts | 275° |
| 2026-04-27 02:54 | 46.91446 | -114.20789 | 18745 ft | 344 kts | 277° |
| 2026-04-27 02:54 | 46.91738 | -114.24214 | 19018 ft | 344 kts | 274° |
| 2026-04-27 02:54 | 46.91944 | -114.27703 | 19303 ft | 346 kts | 274° |
| 2026-04-27 02:54 | 46.92145 | -114.31198 | 19570 ft | 347 kts | 274° |
| 2026-04-27 02:55 | 46.92347 | -114.34712 | 19816 ft | 348 kts | 274° |
| 2026-04-27 02:55 | 46.92549 | -114.38243 | 19994 ft | 352 kts | 274° |
| 2026-04-27 02:55 | 46.92753 | -114.41833 | 20043 ft | 358 kts | 274° |
| 2026-04-27 02:55 | 46.92959 | -114.45467 | 20030 ft | 365 kts | 274° |
| 2026-04-27 02:56 | 46.93169 | -114.49209 | 20034 ft | 371 kts | 273° |
| 2026-04-27 02:56 | 46.93381 | -114.52982 | 20021 ft | 376 kts | 274° |
| 2026-04-27 02:56 | 46.93596 | -114.56840 | 20021 ft | 380 kts | 274° |
| 2026-04-27 02:56 | 46.93809 | -114.60666 | 20024 ft | 381 kts | 274° |
| 2026-04-27 02:57 | 46.94022 | -114.64517 | 20010 ft | 382 kts | 274° |
| 2026-04-27 02:57 | 46.94179 | -114.68387 | 20014 ft | 382 kts | 269° |
| 2026-04-27 02:57 | 46.94020 | -114.72323 | 20015 ft | 382 kts | 262° |
| 2026-04-27 02:57 | 46.93647 | -114.76128 | 20013 ft | 382 kts | 261° |
| 2026-04-27 02:58 | 46.93246 | -114.79989 | 20010 ft | 383 kts | 260° |
| 2026-04-27 02:58 | 46.92849 | -114.83809 | 20008 ft | 383 kts | 261° |
| 2026-04-27 02:58 | 46.92449 | -114.87667 | 20003 ft | 384 kts | 261° |
| 2026-04-27 02:58 | 46.92051 | -114.91502 | 19999 ft | 384 kts | 261° |
| 2026-04-27 02:59 | 46.91650 | -114.95377 | 19999 ft | 385 kts | 261° |
| 2026-04-27 02:59 | 46.91252 | -114.99204 | 19995 ft | 385 kts | 261° |
| 2026-04-27 02:59 | 46.90850 | -115.03077 | 19991 ft | 385 kts | 261° |
| 2026-04-27 02:59 | 46.90448 | -115.06934 | 19995 ft | 385 kts | 261° |
| 2026-04-27 03:00 | 46.90043 | -115.10819 | 19987 ft | 386 kts | 261° |
| 2026-04-27 03:00 | 46.89640 | -115.14680 | 19986 ft | 386 kts | 261° |
| 2026-04-27 03:00 | 46.89234 | -115.18548 | 19987 ft | 386 kts | 261° |
| 2026-04-27 03:00 | 46.88832 | -115.22384 | 19983 ft | 386 kts | 261° |
| 2026-04-27 03:01 | 46.88426 | -115.26241 | 19718 ft | 387 kts | 261° |
| 2026-04-27 03:01 | 46.88015 | -115.30143 | 19404 ft | 384 kts | 261° |
| 2026-04-27 03:01 | 46.87614 | -115.33936 | 19097 ft | 381 kts | 261° |
| 2026-04-27 03:01 | 46.87213 | -115.37719 | 18795 ft | 379 kts | 261° |
| 2026-04-27 03:02 | 46.86806 | -115.41547 | 18467 ft | 378 kts | 261° |
| 2026-04-27 03:02 | 46.86401 | -115.45335 | 18156 ft | 381 kts | 261° |
| 2026-04-27 03:02 | 46.85997 | -115.49110 | 17841 ft | 383 kts | 261° |
| 2026-04-27 03:02 | 46.85582 | -115.52982 | 17525 ft | 384 kts | 261° |
| 2026-04-27 03:03 | 46.85169 | -115.56814 | 17164 ft | 387 kts | 261° |
| 2026-04-27 03:03 | 46.84332 | -115.64541 | 16400 ft | 383 kts | 261° |
| 2026-04-27 03:03 | 46.83914 | -115.68390 | 16015 ft | 376 kts | 261° |
| 2026-04-27 03:04 | 46.83510 | -115.72087 | 15655 ft | 370 kts | 261° |
| 2026-04-27 03:04 | 46.83110 | -115.75742 | 15292 ft | 365 kts | 261° |
| 2026-04-27 03:04 | 46.82708 | -115.79404 | 14934 ft | 361 kts | 261° |
| 2026-04-27 03:04 | 46.82314 | -115.82985 | 14584 ft | 358 kts | 261° |
| 2026-04-27 03:05 | 46.81920 | -115.86558 | 14237 ft | 360 kts | 261° |
| 2026-04-27 03:05 | 46.81521 | -115.90163 | 13887 ft | 363 kts | 262° |
| 2026-04-27 03:05 | 46.81119 | -115.93786 | 13548 ft | 365 kts | 262° |
| 2026-04-27 03:05 | 46.80709 | -115.97475 | 13191 ft | 364 kts | 262° |
| 2026-04-27 03:06 | 46.80306 | -116.01080 | 12837 ft | 361 kts | 262° |
| 2026-04-27 03:06 | 46.79901 | -116.04702 | 12480 ft | 359 kts | 262° |
| 2026-04-27 03:06 | 46.79503 | -116.08242 | 12138 ft | 357 kts | 262° |
| 2026-04-27 03:06 | 46.79099 | -116.11830 | 11800 ft | 355 kts | 262° |
| 2026-04-27 03:07 | 46.78702 | -116.15353 | 11455 ft | 354 kts | 263° |
| 2026-04-27 03:07 | 46.78302 | -116.18883 | 11109 ft | 353 kts | 263° |
| 2026-04-27 03:07 | 46.77905 | -116.22387 | 10886 ft | 348 kts | 263° |
| 2026-04-27 03:07 | 46.77512 | -116.25829 | 10732 ft | 337 kts | 263° |
| 2026-04-27 03:08 | 46.77142 | -116.29050 | 10570 ft | 311 kts | 263° |
| 2026-04-27 03:08 | 46.76797 | -116.32043 | 10402 ft | 290 kts | 263° |
| 2026-04-27 03:08 | 46.76474 | -116.34855 | 10138 ft | 277 kts | 263° |
| 2026-04-27 03:08 | 46.76160 | -116.37585 | 9865 ft | 271 kts | 263° |
| 2026-04-27 03:09 | 46.75852 | -116.40264 | 9591 ft | 267 kts | 263° |
| 2026-04-27 03:09 | 46.75545 | -116.42928 | 9320 ft | 267 kts | 263° |
| 2026-04-27 03:09 | 46.75238 | -116.45586 | 9045 ft | 271 kts | 263° |
| 2026-04-27 03:09 | 46.74920 | -116.48336 | 8764 ft | 275 kts | 263° |
| 2026-04-27 03:10 | 46.74601 | -116.51089 | 8485 ft | 279 kts | 263° |
| 2026-04-27 03:10 | 46.74280 | -116.53857 | 8206 ft | 280 kts | 263° |
| 2026-04-27 03:10 | 46.73954 | -116.56664 | 7922 ft | 280 kts | 263° |
| 2026-04-27 03:10 | 46.73628 | -116.59465 | 7636 ft | 280 kts | 263° |
| 2026-04-27 03:11 | 46.73306 | -116.62233 | 7359 ft | 280 kts | 263° |
| 2026-04-27 03:11 | 46.72979 | -116.65033 | 7078 ft | 279 kts | 262° |
| 2026-04-27 03:11 | 46.72639 | -116.67944 | 6786 ft | 290 kts | 262° |
| 2026-04-27 03:11 | 46.72311 | -116.70755 | 6501 ft | 272 kts | 262° |
| 2026-04-27 03:12 | 46.72006 | -116.73372 | 6239 ft | 257 kts | 262° |
| 2026-04-27 03:12 | 46.71714 | -116.75878 | 5986 ft | 244 kts | 262° |
| 2026-04-27 03:12 | 46.71675 | -116.78230 | 5817 ft | 227 kts | 288° |
| 2026-04-27 03:12 | 46.72243 | -116.80288 | 5667 ft | 213 kts | 294° |
| 2026-04-27 03:13 | 46.72710 | -116.82277 | 5538 ft | 200 kts | 289° |
| 2026-04-27 03:13 | 46.73138 | -116.84151 | 5381 ft | 192 kts | 290° |
| 2026-04-27 03:13 | 46.73529 | -116.85875 | 5239 ft | 166 kts | 290° |
| 2026-04-27 03:13 | 46.73874 | -116.87395 | 5108 ft | 151 kts | 290° |
| 2026-04-27 03:14 | 46.74196 | -116.88812 | 5005 ft | 147 kts | 290° |
| 2026-04-27 03:14 | 46.74511 | -116.90208 | 4892 ft | 140 kts | 290° |
| 2026-04-27 03:14 | 46.74807 | -116.91516 | 4785 ft | 133 kts | 290° |
| 2026-04-27 03:14 | 46.75090 | -116.92773 | 4686 ft | 127 kts | 289° |
| 2026-04-27 03:15 | 46.75313 | -116.94024 | 4566 ft | 129 kts | 285° |
| 2026-04-27 03:15 | 46.75531 | -116.95283 | 4444 ft | 129 kts | 284° |
| 2026-04-27 03:15 | 46.75750 | -116.96571 | 4320 ft | 130 kts | 285° |
| 2026-04-27 03:15 | 46.75965 | -116.97849 | 4197 ft | 130 kts | 284° |
| 2026-04-27 03:16 | 46.76178 | -116.99124 | 4072 ft | 127 kts | 284° |
| 2026-04-27 03:16 | 46.76368 | -117.00356 | 3935 ft | 127 kts | 277° |
| 2026-04-27 03:16 | 46.76362 | -117.01666 | 3792 ft | 130 kts | 268° |
| 2026-04-27 03:16 | 46.76327 | -117.02959 | 3670 ft | 125 kts | 268° |
| 2026-04-27 03:17 | 46.76277 | -117.04234 | 3524 ft | 126 kts | 262° |
| 2026-04-27 03:17 | 46.75996 | -117.05428 | 3359 ft | 127 kts | 244° |
| 2026-04-27 03:17 | 46.75636 | -117.06600 | 3201 ft | 125 kts | 246° |
| 2026-04-27 03:17 | 46.75272 | -117.07755 | 2964 ft | 126 kts | 245° |
| 2026-04-27 03:18 | 46.74899 | -117.08918 | 2768 ft | 125 kts | 245° |
| 2026-04-27 03:18 | 46.74534 | -117.10047 | 2585 ft | 119 kts | 243° |
| 2026-04-27 03:18 | 46.74222 | -117.10997 | 2575 ft | 86 kts | 246° |
| 2026-04-27 03:18 | 46.74049 | -117.11530 | 2575 ft | 40 kts | 244° |
| 2026-04-27 03:19 | 46.73998 | -117.11723 | 2575 ft | 8 kts | 290° |
| 2026-04-27 03:19 | 46.74049 | -117.11768 | 2575 ft | 10 kts | 337° |
| 2026-04-27 03:19 | 46.74095 | -117.11865 | 2575 ft | 13 kts | 296° |
| 2026-04-27 03:19 | 46.74097 | -117.12009 | 2575 ft | 16 kts | 247° |
| 2026-04-27 03:20 | 46.74089 | -117.12116 | 2575 ft | 8 kts | 338° |
| 2026-04-27 03:20 | 46.74111 | -117.12129 | 2575 ft | 0 kts | 334° |